Time;durP1;ratioP1;P1;durP2;ratioP2;P2;SDS_P1;SDS_P2;PMS_P1;PMS_P2;Temp;Humidity;BMP_temperature;BMP_pressure;BME280_temperature;BME280_humidity;BME280_pressure;Samples;Min_cycle;Max_cycle;Signal;HPM_P1;HPM_P2
2022/10/29 00:01:28;;;;;;;;;;;;;;;-144.99;100.00;52374.72;5062086;28;20363;-69
2022/10/29 00:03:54;;;;;;;;;;;;;;;-144.99;100.00;52346.19;5059397;28;19945;-69
2022/10/29 00:06:21;;;;;;;;;;;;;;;-144.99;100.00;52358.41;5061548;28;19935;-70
2022/10/29 00:08:47;;;;;;;;;;;;;;;-144.99;100.00;52399.19;5057036;28;19943;-69
2022/10/29 00:11:17;;;;;;;;;;;;;;;-144.99;100.00;52344.16;5061598;28;20452;-68
2022/10/29 00:13:43;;;;;;;;;;;;;;;-144.99;100.00;52362.50;5064541;28;19940;-68
2022/10/29 00:16:11;;;;;;;;;;;;;;;-144.99;100.00;52358.41;5062315;28;20311;-68
2022/10/29 00:18:38;;;;;;;;;;;;;;;-144.99;100.00;52342.09;5065338;28;19935;-72
2022/10/29 00:21:06;;;;;;;;;;;;;;;-144.99;100.00;52366.56;5064871;28;19961;-72
2022/10/29 00:23:32;;;;;;;;;;;;;;;-144.99;100.00;52391.03;5052026;28;19941;-72
2022/10/29 00:25:59;;;;;;;;;;;;;;;-144.99;100.00;52384.91;5061089;28;20363;-71
2022/10/29 00:28:27;;;;;;;;;;;;;;;-144.99;100.00;52370.63;5059187;28;19992;-74
2022/10/29 00:30:54;;;;;;;;;;;;;;;-144.99;100.00;52362.50;5059140;28;19962;-72
2022/10/29 00:33:20;;;;;;;;;;;;;;;-144.99;100.00;52378.78;5056477;28;20410;-72
2022/10/29 00:35:54;;;;;;;;;;;;;;;-144.99;100.00;52395.09;5060402;28;19942;-72
2022/10/29 00:38:20;;;;;;;;;;;;;;;-144.99;100.00;52358.41;5050588;28;20379;-71
2022/10/29 00:40:47;;;;;;;;;;;;;;;-144.99;100.00;52350.25;5055406;28;19974;-72
2022/10/29 00:43:13;;;;;;;;;;;;;;;-144.99;100.00;52403.25;5057807;28;20069;-71
2022/10/29 00:45:46;;;;;;;;;;;;;;;-144.99;100.00;52372.69;5066016;28;19963;-71
2022/10/29 00:48:12;;;;;;;;;;;;;;;-144.99;100.00;52382.88;5064258;28;19949;-71
2022/10/29 00:50:39;;;;;;;;;;;;;;;-144.99;100.00;52382.88;5063032;28;20418;-71
2022/10/29 00:53:05;;;;;;;;;;;;;;;-144.99;100.00;52354.34;5062714;28;19941;-72
2022/10/29 00:55:32;;;;;;;;;;;;;;;-144.99;100.00;52374.72;5058122;28;19939;-72
2022/10/29 00:57:59;;;;;;;;;;;;;;;-144.99;100.00;52366.56;5059871;28;19952;-71
2022/10/29 01:00:26;;;;;;;;;;;;;;;-144.99;100.00;52370.63;5065593;28;20381;-72
2022/10/29 01:02:53;;;;;;;;;;;;;;;-144.99;100.00;52356.38;5064123;28;19954;-72
2022/10/29 01:05:21;;;;;;;;;;;;;;;-144.99;100.00;52384.91;5063867;28;19947;-71
2022/10/29 01:07:48;;;;;;;;;;;;;;;-144.99;100.00;52378.78;5060255;28;19942;-72
2022/10/29 01:10:14;;;;;;;;;;;;;;;-144.99;100.00;52370.63;5062875;28;20439;-72
2022/10/29 01:12:48;;;;;;;;;;;;;;;-144.99;100.00;52342.09;5065397;28;20045;-72
2022/10/29 01:15:20;;;;;;;;;;;;;;;-144.99;100.00;52378.78;5063813;28;19946;-73
2022/10/29 01:17:53;;;;;;;;;;;;;;;-144.99;100.00;52354.34;5060506;28;19942;-72
2022/10/29 01:20:37;;;;;;;;;;;;;;;-144.99;100.00;52374.72;5059395;28;20416;-73
2022/10/29 01:23:11;;;;;;;;;;;;;;;-144.99;100.00;52368.59;5059154;28;20389;-72
2022/10/29 01:25:55;;;;;;;;;;;;;;;-144.99;100.00;52391.03;5064113;28;19940;-73
2022/10/29 01:28:30;;;;;;;;;;;;;;;-144.99;100.00;52354.34;5056289;28;19946;-73
2022/10/29 01:31:06;;;;;;;;;;;;;;;-144.99;100.00;52374.72;5065237;28;19956;-71
2022/10/29 01:33:36;;;;;;;;;;;;;;;-144.99;100.00;52386.94;5059911;28;21261;-74
2022/10/29 01:36:07;;;;;;;;;;;;;;;-144.99;100.00;52382.88;5062090;28;19947;-73
2022/10/29 01:38:36;;;;;;;;;;;;;;;-144.99;100.00;52366.56;5064457;28;19948;-73
2022/10/29 01:41:06;;;;;;;;;;;;;;;-144.99;100.00;52358.41;5059025;28;20164;-73
2022/10/29 01:43:35;;;;;;;;;;;;;;;-144.99;100.00;52374.72;5062522;28;19935;-72
2022/10/29 01:46:06;;;;;;;;;;;;;;;-144.99;100.00;52366.56;5062470;28;19942;-73
2022/10/29 01:48:34;;;;;;;;;;;;;;;-144.99;100.00;52366.56;5062143;28;19940;-69
2022/10/29 01:51:02;;;;;;;;;;;;;;;-144.99;100.00;52395.09;5055734;28;19972;-70
2022/10/29 01:53:30;;;;;;;;;;;;;;;-144.99;100.00;52342.09;5058490;28;19941;-71
2022/10/29 01:55:59;;;;;;;;;;;;;;;-144.99;100.00;52386.94;5061425;28;19997;-71
2022/10/29 01:58:25;;;;;;;;;;;;;;;-144.99;100.00;52395.09;5064824;28;19931;-70
2022/10/29 02:00:58;;;;;;;;;;;;;;;-144.99;100.00;52344.16;5056857;28;19964;-70
2022/10/29 02:03:29;;;;;;;;;;;;;;;-144.99;100.00;52374.72;5064285;28;19935;-72
2022/10/29 02:06:00;;;;;;;;;;;;;;;-144.99;100.00;52376.75;5068790;28;19945;-73
2022/10/29 02:08:32;;;;;;;;;;;;;;;-144.99;100.00;52362.50;5068597;28;19942;-73
2022/10/29 02:11:02;;;;;;;;;;;;;;;-144.99;100.00;52346.19;5068214;28;19969;-73
2022/10/29 02:13:31;;;;;;;;;;;;;;;-144.99;100.00;52403.25;5073200;28;20029;-68
2022/10/29 02:15:58;;;;;;;;;;;;;;;-144.99;100.00;52319.69;5075342;28;19944;-67
2022/10/29 02:18:25;;;;;;;;;;;;;;;-144.99;100.00;52372.69;5075334;28;20206;-68
2022/10/29 02:20:53;;;;;;;;;;;;;;;-144.99;100.00;52366.56;5065661;28;19964;-69
2022/10/29 02:23:19;;;;;;;;;;;;;;;-144.99;100.00;52366.56;5071228;28;20318;-68
2022/10/29 02:25:45;;;;;;;;;;;;;;;-144.99;100.00;52362.50;5073016;28;19929;-69
2022/10/29 02:28:12;;;;;;;;;;;;;;;-144.99;100.00;52354.34;5079271;28;19947;-69
2022/10/29 02:30:38;;;;;;;;;;;;;;;-144.99;100.00;52360.44;5080640;28;20437;-68
2022/10/29 02:33:05;;;;;;;;;;;;;;;-144.99;100.00;52354.34;5079940;28;19975;-68
2022/10/29 02:35:31;;;;;;;;;;;;;;;-144.99;100.00;52374.72;5077300;28;19939;-68
2022/10/29 02:37:59;;;;;;;;;;;;;;;-144.99;100.00;52362.50;5073105;28;19940;-68
2022/10/29 02:40:25;;;;;;;;;;;;;;;-144.99;100.00;52378.78;5081557;28;20022;-69
2022/10/29 02:42:51;;;;;;;;;;;;;;;-144.99;100.00;52384.91;5074894;28;20035;-68
2022/10/29 02:45:18;;;;;;;;;;;;;;;-144.99;100.00;52354.34;5076346;28;20379;-67
2022/10/29 02:47:44;;;;;;;;;;;;;;;-144.99;100.00;52370.63;5075469;28;19977;-69
2022/10/29 02:50:10;;;;;;;;;;;;;;;-144.99;100.00;52407.31;5065697;28;20451;-69
2022/10/29 02:52:37;;;;;;;;;;;;;;;-144.99;100.00;52391.03;5063162;28;19924;-73
2022/10/29 02:55:05;;;;;;;;;;;;;;;-144.99;100.00;52407.31;5061325;28;20402;-69
2022/10/29 02:57:31;;;;;;;;;;;;;;;-144.99;100.00;52391.03;5068634;28;19957;-72
2022/10/29 02:59:58;;;;;;;;;;;;;;;-144.99;100.00;52380.84;5065908;28;19954;-71
2022/10/29 03:02:24;;;;;;;;;;;;;;;-144.99;100.00;52386.94;5064846;28;19951;-71
2022/10/29 03:04:51;;;;;;;;;;;;;;;-144.99;100.00;52397.13;5062342;28;19939;-72
2022/10/29 03:07:17;;;;;;;;;;;;;;;-144.99;100.00;52386.94;5063293;28;19952;-75
2022/10/29 03:09:43;;;;;;;;;;;;;;;-144.99;100.00;52397.13;5068335;28;19935;-73
2022/10/29 03:12:11;;;;;;;;;;;;;;;-144.99;100.00;52378.78;5066250;28;20391;-69
2022/10/29 03:14:37;;;;;;;;;;;;;;;-144.99;100.00;52393.06;5069135;28;19931;-70
2022/10/29 03:17:04;;;;;;;;;;;;;;;-144.99;100.00;52350.25;5063238;28;20023;-70
2022/10/29 03:19:30;;;;;;;;;;;;;;;-144.99;100.00;52362.50;5060767;28;19940;-72
2022/10/29 03:21:57;;;;;;;;;;;;;;;-144.99;100.00;52366.56;5063238;28;19978;-71
2022/10/29 03:24:23;;;;;;;;;;;;;;;-144.99;100.00;52382.88;5065485;28;19947;-71
2022/10/29 03:26:49;;;;;;;;;;;;;;;-144.99;100.00;52374.72;5063339;28;20113;-73
2022/10/29 03:29:17;;;;;;;;;;;;;;;-144.99;100.00;52395.09;5065127;28;19937;-73
2022/10/29 03:31:44;;;;;;;;;;;;;;;-144.99;100.00;52378.78;5060821;28;19955;-72
2022/10/29 03:34:10;;;;;;;;;;;;;;;-144.99;100.00;52382.88;5064101;28;19939;-73
2022/10/29 03:36:36;;;;;;;;;;;;;;;-144.99;100.00;52386.94;5062894;28;19949;-71
2022/10/29 03:39:03;;;;;;;;;;;;;;;-144.99;100.00;52382.88;5062275;28;19936;-75
2022/10/29 03:41:29;;;;;;;;;;;;;;;-144.99;100.00;52331.91;5057939;28;19967;-76
2022/10/29 03:43:55;;;;;;;;;;;;;;;-144.99;100.00;52374.72;5067229;28;19940;-74
2022/10/29 03:46:23;;;;;;;;;;;;;;;-144.99;100.00;52358.41;5062597;28;20295;-74
2022/10/29 03:48:50;;;;;;;;;;;;;;;-144.99;100.00;52386.94;5055446;28;19949;-75
2022/10/29 03:51:16;;;;;;;;;;;;;;;-144.99;100.00;52378.78;5071961;22;21166;-71
2022/10/29 03:53:42;;;;;;;;;;;;;;;-144.99;100.00;52415.47;5077036;28;20482;-71
2022/10/29 03:56:09;;;;;;;;;;;;;;;-144.99;100.00;52364.53;5083840;28;20039;-70
2022/10/29 03:58:36;;;;;;;;;;;;;;;-144.99;100.00;52423.63;5078814;28;19981;-73
2022/10/29 04:01:03;;;;;;;;;;;;;;;-144.99;100.00;52368.59;5067145;28;19970;-71
2022/10/29 04:03:31;;;;;;;;;;;;;;;-144.99;100.00;52407.31;5059469;28;19937;-73
2022/10/29 04:05:59;;;;;;;;;;;;;;;-144.99;100.00;52376.75;5056759;28;19946;-73
2022/10/29 04:08:25;;;;;;;;;;;;;;;-144.99;100.00;52395.09;5062004;28;19956;-72
2022/10/29 04:10:52;;;;;;;;;;;;;;;-144.99;100.00;52401.22;5058290;28;19965;-72
2022/10/29 04:13:19;;;;;;;;;;;;;;;-144.99;100.00;52362.50;5065312;28;19953;-72
2022/10/29 04:15:45;;;;;;;;;;;;;;;-144.99;100.00;52423.63;5069621;28;19936;-72
2022/10/29 04:18:12;;;;;;;;;;;;;;;-144.99;100.00;52391.03;5065320;28;20033;-72
2022/10/29 04:20:40;;;;;;;;;;;;;;;-144.99;100.00;52360.44;5071091;28;20490;-72
2022/10/29 04:23:07;;;;;;;;;;;;;;;-144.99;100.00;52382.88;5057646;28;20242;-72
2022/10/29 04:25:33;;;;;;;;;;;;;;;-144.99;100.00;52374.72;5061279;28;19946;-72
2022/10/29 04:27:59;;;;;;;;;;;;;;;-144.99;100.00;52350.25;5060646;28;20386;-71
2022/10/29 04:30:26;;;;;;;;;;;;;;;-144.99;100.00;52386.94;5063337;28;19977;-71
2022/10/29 04:32:55;;;;;;;;;;;;;;;-144.99;100.00;52382.88;5060714;28;19925;-71
2022/10/29 04:35:22;;;;;;;;;;;;;;;-144.99;100.00;52395.09;5062276;28;20013;-71
2022/10/29 04:37:49;;;;;;;;;;;;;;;-144.99;100.00;52407.31;5058508;28;19949;-71
2022/10/29 04:40:16;;;;;;;;;;;;;;;-144.99;100.00;52382.88;5064222;28;19961;-70
2022/10/29 04:42:43;;;;;;;;;;;;;;;-144.99;100.00;52360.44;5053991;28;20394;-71
2022/10/29 04:45:09;;;;;;;;;;;;;;;-144.99;100.00;52401.22;5061916;28;19944;-69
2022/10/29 04:47:36;;;;;;;;;;;;;;;-144.99;100.00;52370.63;5062926;28;19939;-70
2022/10/29 04:50:02;;;;;;;;;;;;;;;-144.99;100.00;52384.91;5063654;28;19955;-70
2022/10/29 04:52:29;;;;;;;;;;;;;;;-144.99;100.00;52407.31;5062802;28;19953;-71
2022/10/29 04:54:56;;;;;;;;;;;;;;;-144.99;100.00;52325.81;5061178;28;19963;-71
2022/10/29 04:57:23;;;;;;;;;;;;;;;-144.99;100.00;52403.25;5060059;28;19946;-69
2022/10/29 04:59:49;;;;;;;;;;;;;;;-144.99;100.00;52407.31;5059737;28;19949;-68
2022/10/29 05:02:15;;;;;;;;;;;;;;;-144.99;100.00;52362.50;5061067;28;20160;-68
2022/10/29 05:04:42;;;;;;;;;;;;;;;-144.99;100.00;52384.91;5059993;28;19935;-69
2022/10/29 05:07:08;;;;;;;;;;;;;;;-144.99;100.00;52415.47;5055457;28;19949;-69
2022/10/29 05:09:35;;;;;;;;;;;;;;;-144.99;100.00;52362.50;5064259;28;19942;-69
2022/10/29 05:12:02;;;;;;;;;;;;;;;-144.99;100.00;52407.31;5061722;28;19924;-69
2022/10/29 05:14:29;;;;;;;;;;;;;;;-144.99;100.00;52340.06;5071740;28;20420;-69
2022/10/29 05:16:55;;;;;;;;;;;;;;;-144.99;100.00;52370.63;5059247;28;19951;-69
2022/10/29 05:19:21;;;;;;;;;;;;;;;-144.99;100.00;52366.56;5074854;28;19954;-69
2022/10/29 05:21:48;;;;;;;;;;;;;;;-144.99;100.00;52358.41;5069116;28;20404;-68
2022/10/29 05:24:15;;;;;;;;;;;;;;;-144.99;100.00;52362.50;5077545;28;19970;-69
2022/10/29 05:26:41;;;;;;;;;;;;;;;-144.99;100.00;52415.47;5067999;28;20440;-68
2022/10/29 05:29:09;;;;;;;;;;;;;;;-144.99;100.00;52354.34;5059706;28;20287;-66
2022/10/29 05:31:35;;;;;;;;;;;;;;;-144.99;100.00;52384.91;5066646;28;20304;-65
2022/10/29 05:34:01;;;;;;;;;;;;;;;-144.99;100.00;52372.69;5067521;28;20071;-65
2022/10/29 05:36:28;;;;;;;;;;;;;;;-144.99;100.00;52374.72;5061401;28;19962;-64
2022/10/29 05:38:54;;;;;;;;;;;;;;;-144.99;100.00;52366.56;5067031;28;19942;-63
2022/10/29 05:41:21;;;;;;;;;;;;;;;-144.99;100.00;52382.88;5076611;28;20000;-64
2022/10/29 05:43:48;;;;;;;;;;;;;;;-144.99;100.00;52403.25;5063926;28;20386;-65
2022/10/29 05:46:16;;;;;;;;;;;;;;;-144.99;100.00;52378.78;5066788;28;20343;-64
2022/10/29 05:48:42;;;;;;;;;;;;;;;-144.99;100.00;52391.03;5067008;28;19935;-64
2022/10/29 05:51:08;;;;;;;;;;;;;;;-144.99;100.00;52382.88;5064231;28;19970;-64
2022/10/29 05:53:35;;;;;;;;;;;;;;;-144.99;100.00;52386.94;5062156;28;19937;-64
2022/10/29 05:56:01;;;;;;;;;;;;;;;-144.99;100.00;52391.03;5069979;28;19954;-67
2022/10/29 05:58:28;;;;;;;;;;;;;;;-144.99;100.00;52403.25;5063382;28;19935;-67
2022/10/29 06:00:54;;;;;;;;;;;;;;;-144.99;100.00;52378.78;5068836;28;20504;-65
2022/10/29 06:03:22;;;;;;;;;;;;;;;-144.99;100.00;52386.94;5065146;28;19961;-65
2022/10/29 06:05:49;;;;;;;;;;;;;;;-144.99;100.00;52393.06;5068329;28;20007;-64
2022/10/29 06:08:16;;;;;;;;;;;;;;;-144.99;100.00;52374.72;5062667;28;19968;-71
2022/10/29 06:10:43;;;;;;;;;;;;;;;-144.99;100.00;52411.41;5060277;28;20083;-68
2022/10/29 06:13:10;;;;;;;;;;;;;;;-144.99;100.00;52395.09;5063961;28;20355;-67
2022/10/29 06:15:36;;;;;;;;;;;;;;;-144.99;100.00;52395.09;5062472;28;20403;-68
2022/10/29 06:18:03;;;;;;;;;;;;;;;-144.99;100.00;52444.03;5060678;28;19941;-68
2022/10/29 06:20:30;;;;;;;;;;;;;;;-144.99;100.00;52419.56;5059472;28;19953;-69
2022/10/29 06:22:57;;;;;;;;;;;;;;;-144.99;100.00;52407.31;5056490;28;19969;-73
2022/10/29 06:25:24;;;;;;;;;;;;;;;-144.99;100.00;52395.09;5060734;28;19942;-68
2022/10/29 06:27:57;;;;;;;;;;;;;;;-144.99;100.00;52391.03;5056613;28;19941;-69
2022/10/29 06:30:23;;;;;;;;;;;;;;;-144.99;100.00;52419.56;5057135;28;19951;-70
2022/10/29 06:32:50;;;;;;;;;;;;;;;-144.99;100.00;52388.97;5056693;28;19936;-69
2022/10/29 06:35:16;;;;;;;;;;;;;;;-144.99;100.00;52376.75;5061167;28;20405;-69
2022/10/29 06:37:44;;;;;;;;;;;;;;;-144.99;100.00;52425.66;5049944;28;19950;-68
2022/10/29 06:40:10;;;;;;;;;;;;;;;-144.99;100.00;52411.41;5065756;28;19966;-69
2022/10/29 06:42:37;;;;;;;;;;;;;;;-144.99;100.00;52423.63;5064174;28;19959;-67
2022/10/29 06:45:03;;;;;;;;;;;;;;;-144.99;100.00;52370.63;5053637;28;19949;-67
2022/10/29 06:47:30;;;;;;;;;;;;;;;-144.99;100.00;52386.94;5061466;28;19949;-64
2022/10/29 06:49:57;;;;;;;;;;;;;;;-144.99;100.00;52415.47;5060897;28;19951;-64
2022/10/29 06:52:23;;;;;;;;;;;;;;;-144.99;100.00;52386.94;5061213;28;21379;-63
2022/10/29 06:54:51;;;;;;;;;;;;;;;-144.99;100.00;52386.94;5060343;28;20272;-63
2022/10/29 06:57:17;;;;;;;;;;;;;;;-144.99;100.00;52378.78;5059704;28;19935;-62
2022/10/29 06:59:44;;;;;;;;;;;;;;;-144.99;100.00;52370.63;5058110;28;19946;-63
2022/10/29 07:02:12;;;;;;;;;;;;;;;-144.99;100.00;52336.00;5053673;28;20422;-64
2022/10/29 07:04:38;;;;;;;;;;;;;;;-144.99;100.00;52378.78;5067428;28;20435;-65
2022/10/29 07:07:05;;;;;;;;;;;;;;;-144.99;100.00;52403.25;5064229;28;19965;-72
2022/10/29 07:09:31;;;;;;;;;;;;;;;-144.99;100.00;52395.09;5054430;28;19939;-72
2022/10/29 07:11:59;;;;;;;;;;;;;;;-144.99;100.00;52384.91;5062122;28;19943;-72
2022/10/29 07:14:25;;;;;;;;;;;;;;;-144.99;100.00;52425.66;5060458;28;19937;-72
2022/10/29 07:16:52;;;;;;;;;;;;;;;-144.99;100.00;52366.56;5058892;28;19945;-73
2022/10/29 07:19:19;;;;;;;;;;;;;;;-144.99;100.00;52399.19;5060061;28;19939;-73
2022/10/29 07:21:45;;;;;;;;;;;;;;;-144.99;100.00;52427.72;5063575;28;19951;-73
2022/10/29 07:24:11;;;;;;;;;;;;;;;-144.99;100.00;52380.84;5063790;28;19967;-74
2022/10/29 07:26:38;;;;;;;;;;;;;;;-144.99;100.00;52386.94;5084602;28;20317;-73
2022/10/29 07:29:06;;;;;;;;;;;;;;;-144.99;100.00;52362.50;5065208;28;19940;-74
2022/10/29 07:31:32;;;;;;;;;;;;;;;-144.99;100.00;52344.16;5059029;28;19958;-73
2022/10/29 07:33:58;;;;;;;;;;;;;;;-144.99;100.00;52399.19;5059541;28;20029;-69
2022/10/29 07:36:25;;;;;;;;;;;;;;;-144.99;100.00;52386.94;5060396;28;20298;-67
2022/10/29 07:38:54;;;;;;;;;;;;;;;-144.99;100.00;52348.22;5059568;28;19957;-67
2022/10/29 07:41:20;;;;;;;;;;;;;;;-144.99;100.00;52370.63;5060168;28;19959;-67
2022/10/29 07:43:46;;;;;;;;;;;;;;;-144.99;100.00;52374.72;5059905;28;19955;-68
2022/10/29 07:46:16;;;;;;;;;;;;;;;-144.99;100.00;52374.72;5056843;28;20588;-67
2022/10/29 07:48:42;;;;;;;;;;;;;;;-144.99;100.00;52395.09;5062844;28;19938;-67
2022/10/29 07:51:09;;;;;;;;;;;;;;;-144.99;100.00;52391.03;5059881;28;19963;-67
2022/10/29 07:53:35;;;;;;;;;;;;;;;-144.99;100.00;52374.72;5054750;28;19958;-67
2022/10/29 07:56:02;;;;;;;;;;;;;;;-144.99;100.00;52391.03;5056336;28;20481;-68
2022/10/29 07:58:28;;;;;;;;;;;;;;;-144.99;100.00;52358.41;5060880;28;20331;-66
2022/10/29 08:00:55;;;;;;;;;;;;;;;-144.99;100.00;52393.06;5062380;28;19956;-67
2022/10/29 08:03:22;;;;;;;;;;;;;;;-144.99;100.00;52378.78;5053490;28;19971;-66
2022/10/29 08:05:49;;;;;;;;;;;;;;;-144.99;100.00;52366.56;5060732;28;20295;-67
2022/10/29 08:08:16;;;;;;;;;;;;;;;-144.99;100.00;52366.56;5060357;28;19949;-67
2022/10/29 08:10:42;;;;;;;;;;;;;;;-144.99;100.00;52360.44;5060417;28;20318;-67
2022/10/29 08:13:09;;;;;;;;;;;;;;;-144.99;100.00;52391.03;5059704;28;19939;-67
2022/10/29 08:15:36;;;;;;;;;;;;;;;-144.99;100.00;52354.34;5070223;28;20449;-67
2022/10/29 08:18:03;;;;;;;;;;;;;;;-144.99;100.00;52366.56;5069493;28;20403;-74
2022/10/29 08:20:31;;;;;;;;;;;;;;;-144.99;100.00;52374.72;5063953;28;19953;-76
2022/10/29 08:23:00;;;;;;;;;;;;;;;-144.99;100.00;52386.94;5062829;28;19958;-77
2022/10/29 08:25:27;;;;;;;;;;;;;;;-144.99;100.00;52362.50;5060205;28;19931;-76
2022/10/29 08:28:00;;;;;;;;;;;;;;;-144.99;100.00;52342.09;5055851;28;20403;-76
2022/10/29 08:30:26;;;;;;;;;;;;;;;-144.99;100.00;52370.63;5070043;28;19958;-76
2022/10/29 08:32:53;;;;;;;;;;;;;;;-144.99;100.00;52360.44;5055469;28;20069;-77
2022/10/29 08:35:19;;;;;;;;;;;;;;;-144.99;100.00;52346.19;5068598;28;19943;-76
2022/10/29 08:37:47;;;;;;;;;;;;;;;-144.99;100.00;52366.56;5049376;28;19947;-76
2022/10/29 08:40:16;;;;;;;;;;;;;;;-144.99;100.00;52358.41;5049184;28;20007;-76
2022/10/29 08:42:45;;;;;;;;;;;;;;;-144.99;100.00;52348.22;5067848;28;19963;-77
2022/10/29 08:45:24;;;;;;;;;;;;;;;-144.99;100.00;52342.09;5059309;28;19946;-76
2022/10/29 08:48:15;;;;;;;;;;;;;;;-144.99;100.00;52317.66;5078216;28;19972;-76
2022/10/29 08:50:44;;;;;;;;;;;;;;;-144.99;100.00;52350.25;5070511;28;20307;-76
2022/10/29 08:53:16;;;;;;;;;;;;;;;-144.99;100.00;52348.22;5075552;28;19962;-76
2022/10/29 08:55:42;;;;;;;;;;;;;;;-144.99;100.00;52350.25;5071473;28;19982;-76
2022/10/29 08:58:13;;;;;;;;;;;;;;;-144.99;100.00;52350.25;5076703;28;19950;-76
2022/10/29 09:00:41;;;;;;;;;;;;;;;-144.99;100.00;52338.03;5056755;28;20002;-76
2022/10/29 09:03:09;;;;;;;;;;;;;;;-144.99;100.00;52329.88;5071414;28;19961;-75
2022/10/29 09:05:45;;;;;;;;;;;;;;;-144.99;100.00;52305.41;5072764;28;20271;-77
2022/10/29 09:08:24;;;;;;;;;;;;;;;-144.99;100.00;52315.59;5070821;28;20065;-77
2022/10/29 09:10:53;;;;;;;;;;;;;;;-144.99;100.00;52313.56;5069881;28;20002;-76
2022/10/29 09:13:32;;;;;;;;;;;;;;;-144.99;100.00;52301.34;5066814;28;20095;-76
2022/10/29 09:16:23;;;;;;;;;;;;;;;-144.99;100.00;52301.34;5060469;28;20041;-77
2022/10/29 09:19:05;;;;;;;;;;;;;;;-144.99;99.25;52293.19;5052237;28;20408;-76
2022/10/29 09:21:33;;;;;;;;;;;;;;;-144.99;95.58;52309.50;5057718;28;19966;-77
2022/10/29 09:24:11;;;;;;;;;;;;;;;-144.99;93.69;52289.13;5059089;28;19967;-76
2022/10/29 09:26:43;;;;;;;;;;;;;;;-144.99;91.49;52305.41;5064789;28;19949;-76
2022/10/29 09:29:25;;;;;;;;;;;;;;;-144.99;89.62;52309.50;5063979;28;19925;-77
2022/10/29 09:31:55;;;;;;;;;;;;;;;-144.99;89.14;52266.69;5058715;28;19964;-77
2022/10/29 09:34:28;;;;;;;;;;;;;;;-144.99;88.22;52301.34;5055034;28;20073;-77
2022/10/29 09:36:55;;;;;;;;;;;;;;;-144.99;87.56;52297.25;5073337;28;20092;-76
2022/10/29 09:39:27;;;;;;;;;;;;;;;-144.99;88.95;52325.81;5072080;28;20038;-75
2022/10/29 09:41:54;;;;;;;;;;;;;;;-144.99;89.44;52297.25;5052423;28;19964;-76
2022/10/29 09:44:22;;;;;;;;;;;;;;;-144.99;87.85;52283.00;5056691;28;20190;-70
2022/10/29 09:46:54;;;;;;;;;;;;;;;-144.99;85.30;52289.13;5065097;28;20317;-69
2022/10/29 09:49:26;;;;;;;;;;;;;;;-144.99;82.36;52303.38;5060478;28;19949;-69
2022/10/29 09:51:54;;;;;;;;;;;;;;;-144.99;82.73;52301.34;5058339;28;20039;-70
2022/10/29 09:54:23;;;;;;;;;;;;;;;-144.99;84.73;52289.13;5068363;22;19972;-67
2022/10/29 09:56:49;;;;;;;;;;;;;;;-144.99;85.41;52338.03;5058343;28;19941;-65
2022/10/29 09:59:20;;;;;;;;;;;;;;;-144.99;86.77;52264.66;5067221;28;20043;-66
2022/10/29 10:01:47;;;;;;;;;;;;;;;-144.99;89.00;52338.03;5062017;28;19955;-67
2022/10/29 10:04:19;;;;;;;;;;;;;;;-144.99;88.13;52333.94;5068849;28;19957;-66
2022/10/29 10:07:00;;;;;;;;;;;;;;;-144.99;88.79;52309.50;5071636;28;20020;-67
2022/10/29 10:09:28;;;;;;;;;;;;;;;-144.99;88.46;52317.66;5056833;28;20031;-66
2022/10/29 10:11:57;;;;;;;;;;;;;;;-144.99;88.23;52240.19;5067475;28;19963;-66
2022/10/29 10:14:25;;;;;;;;;;;;;;;-144.99;83.28;52244.28;5063371;28;19998;-67
2022/10/29 10:16:56;;;;;;;;;;;;;;;-144.99;81.21;52309.50;5067307;28;19946;-66
2022/10/29 10:19:24;;;;;;;;;;;;;;;-144.99;79.61;52289.13;5066926;28;19957;-65
2022/10/29 10:21:56;;;;;;;;;;;;;;;-144.99;81.08;52276.88;5065803;28;19959;-67
2022/10/29 10:24:28;;;;;;;;;;;;;;;-144.99;81.81;52268.72;5064815;28;20421;-67
2022/10/29 10:26:55;;;;;;;;;;;;;;;-144.99;83.57;52301.34;5070379;28;19980;-67
2022/10/29 10:29:22;;;;;;;;;;;;;;;-144.99;84.31;52317.66;5070541;28;19949;-67
2022/10/29 10:32:09;;;;;;;;;;;;;;;-144.99;84.78;52301.34;4473046;28;10000835;-67
2022/10/29 10:34:36;;;;;;;;;;;;;;;-144.99;86.32;52329.88;5064579;28;19941;-67
2022/10/29 10:37:04;;;;;;;;;;;;;;;-144.99;86.53;52346.19;5065712;28;20356;-67
2022/10/29 10:39:36;;;;;;;;;;;;;;;-144.99;87.96;52313.56;5062525;28;19947;-67
2022/10/29 10:42:04;;;;;;;;;;;;;;;-144.99;86.95;52280.97;5066602;28;20322;-67
2022/10/29 10:44:31;;;;;;;;;;;;;;;-144.99;84.63;52268.72;5066884;28;19959;-67
2022/10/29 10:46:59;;;;;;;;;;;;;;;-144.99;80.39;52264.66;5066289;28;19950;-67
2022/10/29 10:49:30;;;;;;;;;;;;;;;-144.99;80.57;52317.66;5067091;28;19945;-66
2022/10/29 10:51:57;;;;;;;;;;;;;;;-144.99;82.26;52309.50;5066097;28;20304;-68
2022/10/29 10:54:27;;;;;;;;;;;;;;;-144.99;84.43;52289.13;5065193;28;19950;-66
2022/10/29 10:56:57;;;;;;;;;;;;;;;-144.99;85.86;52309.50;5066491;28;20304;-67
2022/10/29 10:59:25;;;;;;;;;;;;;;;-144.99;85.55;52289.13;5063473;28;19948;-67
2022/10/29 11:01:52;;;;;;;;;;;;;;;-144.99;86.28;52340.06;5048583;28;19969;-67
2022/10/29 11:04:21;;;;;;;;;;;;;;;-144.99;87.11;52325.81;5067350;28;19959;-67
2022/10/29 11:06:49;;;;;;;;;;;;;;;-144.99;89.99;52366.56;5069236;28;20039;-67
2022/10/29 11:09:20;;;;;;;;;;;;;;;-144.99;92.73;52321.72;5067039;28;20297;-67
2022/10/29 11:11:50;;;;;;;;;;;;;;;-144.99;96.44;52358.41;5067643;28;20166;-67
2022/10/29 11:14:24;;;;;;;;;;;;;;;-144.99;99.99;52374.72;5068067;28;19950;-66
2022/10/29 11:16:53;;;;;;;;;;;;;;;-144.99;100.00;52358.41;5066948;28;19950;-67
2022/10/29 11:19:23;;;;;;;;;;;;;;;-144.99;100.00;52354.34;5072122;28;19944;-67
2022/10/29 11:21:55;;;;;;;;;;;;;;;-144.99;100.00;52366.56;5072423;28;20000;-66
2022/10/29 11:24:25;;;;;;;;;;;;;;;-144.99;100.00;52378.78;5067292;28;19956;-67
2022/10/29 11:26:54;;;;;;;;;;;;;;;-144.99;100.00;52386.94;5070809;28;19974;-68
2022/10/29 11:29:25;;;;;;;;;;;;;;;-144.99;100.00;52370.63;5060342;28;19979;-66
2022/10/29 11:31:56;;;;;;;;;;;;;;;-144.99;100.00;52358.41;5066442;28;20045;-66
2022/10/29 11:34:25;;;;;;;;;;;;;;;-144.99;100.00;52370.63;5064101;28;19977;-67
2022/10/29 11:36:55;;;;;;;;;;;;;;;-144.99;100.00;52370.63;5065327;28;19972;-68
2022/10/29 11:39:25;;;;;;;;;;;;;;;-144.99;100.00;52338.03;5066564;28;19970;-66
2022/10/29 11:41:55;;;;;;;;;;;;;;;-144.99;100.00;52350.25;5066630;28;19966;-66
2022/10/29 11:44:23;;;;;;;;;;;;;;;-144.99;100.00;52358.41;5067077;28;19960;-66
2022/10/29 11:47:00;;;;;;;;;;;;;;;-144.99;100.00;52329.88;5067687;28;20500;-67
2022/10/29 11:49:34;;;;;;;;;;;;;;;-144.99;100.00;52374.72;5062052;28;20301;-67
2022/10/29 11:52:07;;;;;;;;;;;;;;;-144.99;100.00;52362.50;4706516;28;9999912;-67
2022/10/29 11:54:42;;;;;;;;;;;;;;;-144.99;100.00;52366.56;5065132;28;19945;-67
2022/10/29 11:57:12;;;;;;;;;;;;;;;-144.99;100.00;52329.88;5065896;28;20304;-66
2022/10/29 11:59:42;;;;;;;;;;;;;;;-144.99;100.00;52358.41;5065620;28;19948;-67
2022/10/29 12:02:17;;;;;;;;;;;;;;;-144.99;100.00;52340.06;5065119;28;20407;-67
2022/10/29 12:04:46;;;;;;;;;;;;;;;-144.99;100.00;52378.78;5065737;28;19964;-65
2022/10/29 12:07:24;;;;;;;;;;;;;;;-144.99;100.00;52372.69;5052439;28;19948;-66
2022/10/29 12:10:04;;;;;;;;;;;;;;;-144.99;100.00;52325.81;5067749;28;19948;-67
2022/10/29 12:12:32;;;;;;;;;;;;;;;-144.99;100.00;52350.25;5066200;28;20169;-66
2022/10/29 12:15:04;;;;;;;;;;;;;;;-144.99;100.00;52329.88;5059625;28;19944;-67
2022/10/29 12:17:34;;;;;;;;;;;;;;;-144.99;100.00;52366.56;5064299;28;20229;-66
2022/10/29 12:20:04;;;;;;;;;;;;;;;-144.99;100.00;52338.03;5066404;28;20076;-67
2022/10/29 12:22:37;;;;;;;;;;;;;;;-144.99;100.00;52338.03;5062449;28;19938;-67
2022/10/29 12:25:18;;;;;;;;;;;;;;;-144.99;100.00;52321.72;5056779;28;20369;-67